Tynemouth, United Kingdom
Current Conditions -  °F | °C
As of 5:20 PM on Thursday 23 Oct 2014 (Local Time) from EGNT Reporting Station
Scattered Clouds Scattered Clouds  
Wind Chill: 59°   Ceiling: Unl
Heat Index: 59°   Visibility: 6mi
Dew Point: 52°   Wind: 8mph
Humidity: 77%   Direction: 220°SW
Pressure: 29.77"   Gusts: NA
Location:  55.02°N, 1.43°W
Report Text: EGNT 231620Z 22007KT 180V260 9999 SCT030 15/11 Q1008
Loading
Personal Weather Stations






























Interactive Weather Map
Tropical Storm Tracking
New forecast layout! Learn more

10-Day Weather Forecast

Advertisements
Track Severe Weather on mobile